sensor_id;sensor_type;location;lat;lon;timestamp;pressure;altitude;pressure_sealevel;temperature;humidity
34237;BME280;20501;45.956;13.632;2023-05-14T00:00:38;100583.38;;;12.19;80.70
34237;BME280;20501;45.956;13.632;2023-05-14T00:03:04;100591.81;;;12.80;81.05
34237;BME280;20501;45.956;13.632;2023-05-14T00:05:29;100592.19;;;12.85;77.47
34237;BME280;20501;45.956;13.632;2023-05-14T00:07:55;100586.47;;;12.70;78.18
34237;BME280;20501;45.956;13.632;2023-05-14T00:10:20;100583.69;;;12.80;80.64
34237;BME280;20501;45.956;13.632;2023-05-14T00:12:46;100581.97;;;13.15;79.94
34237;BME280;20501;45.956;13.632;2023-05-14T00:15:12;100574.03;;;13.40;78.80
34237;BME280;20501;45.956;13.632;2023-05-14T00:17:37;100578.31;;;13.43;76.65
34237;BME280;20501;45.956;13.632;2023-05-14T00:20:04;100567.72;;;13.13;76.34
34237;BME280;20501;45.956;13.632;2023-05-14T00:22:31;100568.34;;;13.34;77.32
34237;BME280;20501;45.956;13.632;2023-05-14T00:24:57;100568.00;;;13.28;76.74
34237;BME280;20501;45.956;13.632;2023-05-14T00:27:22;100557.88;;;13.57;78.68
34237;BME280;20501;45.956;13.632;2023-05-14T00:29:48;100550.63;;;14.00;76.74
34237;BME280;20501;45.956;13.632;2023-05-14T00:32:13;100552.91;;;13.08;79.24
34237;BME280;20501;45.956;13.632;2023-05-14T00:34:39;100557.06;;;12.94;79.41
34237;BME280;20501;45.956;13.632;2023-05-14T00:37:04;100547.34;;;12.91;79.34
34237;BME280;20501;45.956;13.632;2023-05-14T00:39:31;100548.50;;;13.07;77.85
34237;BME280;20501;45.956;13.632;2023-05-14T00:41:56;100558.75;;;12.59;79.65
34237;BME280;20501;45.956;13.632;2023-05-14T00:44:22;100553.44;;;13.29;80.02
34237;BME280;20501;45.956;13.632;2023-05-14T00:46:47;100543.78;;;13.53;78.67
34237;BME280;20501;45.956;13.632;2023-05-14T00:49:14;100545.56;;;13.00;78.37
34237;BME280;20501;45.956;13.632;2023-05-14T00:51:39;100534.81;;;12.54;81.48
34237;BME280;20501;45.956;13.632;2023-05-14T00:54:06;100534.72;;;12.82;81.79
34237;BME280;20501;45.956;13.632;2023-05-14T00:56:33;100537.59;;;12.80;81.58
34237;BME280;20501;45.956;13.632;2023-05-14T00:58:59;100526.69;;;12.72;80.44
34237;BME280;20501;45.956;13.632;2023-05-14T01:01:24;100527.34;;;13.10;79.66
34237;BME280;20501;45.956;13.632;2023-05-14T01:03:53;100530.16;;;12.46;80.74
34237;BME280;20501;45.956;13.632;2023-05-14T01:09:24;100519.19;;;13.10;80.94
34237;BME280;20501;45.956;13.632;2023-05-14T01:14:46;100507.66;;;13.35;79.40
34237;BME280;20501;45.956;13.632;2023-05-14T01:17:15;100518.84;;;13.92;77.39
34237;BME280;20501;45.956;13.632;2023-05-14T01:19:46;100503.91;;;12.83;80.94
34237;BME280;20501;45.956;13.632;2023-05-14T01:22:11;100504.19;;;12.98;82.06
34237;BME280;20501;45.956;13.632;2023-05-14T01:24:38;100505.38;;;12.95;79.70
34237;BME280;20501;45.956;13.632;2023-05-14T01:27:29;100501.81;;;12.95;81.78
34237;BME280;20501;45.956;13.632;2023-05-14T01:30:12;100496.75;;;13.00;80.23
34237;BME280;20501;45.956;13.632;2023-05-14T01:32:40;100489.22;;;13.12;80.01
34237;BME280;20501;45.956;13.632;2023-05-14T01:35:07;100503.88;;;13.01;81.16
34237;BME280;20501;45.956;13.632;2023-05-14T01:37:33;100492.44;;;13.68;78.98
34237;BME280;20501;45.956;13.632;2023-05-14T01:40:01;100489.13;;;12.77;81.40
34237;BME280;20501;45.956;13.632;2023-05-14T01:42:28;100485.22;;;13.24;79.32
34237;BME280;20501;45.956;13.632;2023-05-14T01:44:54;100488.88;;;13.68;79.02
34237;BME280;20501;45.956;13.632;2023-05-14T01:47:20;100486.16;;;13.68;77.40
34237;BME280;20501;45.956;13.632;2023-05-14T01:49:45;100488.41;;;12.93;80.56
34237;BME280;20501;45.956;13.632;2023-05-14T01:52:11;100475.47;;;13.66;78.69
34237;BME280;20501;45.956;13.632;2023-05-14T01:54:36;100468.53;;;13.37;79.24
34237;BME280;20501;45.956;13.632;2023-05-14T01:57:02;100478.72;;;12.91;80.01
34237;BME280;20501;45.956;13.632;2023-05-14T01:59:27;100465.59;;;13.30;79.57
34237;BME280;20501;45.956;13.632;2023-05-14T02:01:54;100464.63;;;13.74;78.56
34237;BME280;20501;45.956;13.632;2023-05-14T02:04:19;100460.19;;;13.30;80.74
34237;BME280;20501;45.956;13.632;2023-05-14T02:06:45;100453.81;;;13.40;78.80
34237;BME280;20501;45.956;13.632;2023-05-14T02:09:10;100459.09;;;13.23;79.93
34237;BME280;20501;45.956;13.632;2023-05-14T02:11:36;100457.34;;;13.40;80.30
34237;BME280;20501;45.956;13.632;2023-05-14T02:14:01;100458.38;;;13.39;80.63
34237;BME280;20501;45.956;13.632;2023-05-14T02:16:27;100461.16;;;12.95;80.93
34237;BME280;20501;45.956;13.632;2023-05-14T02:18:52;100457.63;;;13.03;81.73
34237;BME280;20501;45.956;13.632;2023-05-14T02:21:18;100453.97;;;13.12;80.68
34237;BME280;20501;45.956;13.632;2023-05-14T02:23:43;100464.03;;;13.01;82.01
34237;BME280;20501;45.956;13.632;2023-05-14T02:26:10;100455.19;;;13.44;80.26
34237;BME280;20501;45.956;13.632;2023-05-14T02:28:35;100462.13;;;13.12;82.52
34237;BME280;20501;45.956;13.632;2023-05-14T02:31:01;100458.09;;;13.51;79.57
34237;BME280;20501;45.956;13.632;2023-05-14T02:33:27;100460.88;;;13.67;79.43
34237;BME280;20501;45.956;13.632;2023-05-14T02:35:52;100456.66;;;13.65;79.02
34237;BME280;20501;45.956;13.632;2023-05-14T02:38:18;100455.56;;;13.92;78.88
34237;BME280;20501;45.956;13.632;2023-05-14T02:40:44;100461.66;;;13.51;80.37
34237;BME280;20501;45.956;13.632;2023-05-14T02:43:09;100461.94;;;13.13;83.09
34237;BME280;20501;45.956;13.632;2023-05-14T02:45:34;100463.34;;;13.44;81.79
34237;BME280;20501;45.956;13.632;2023-05-14T02:48:00;100473.88;;;13.03;83.57
34237;BME280;20501;45.956;13.632;2023-05-14T02:50:25;100457.69;;;12.84;84.64
34237;BME280;20501;45.956;13.632;2023-05-14T02:52:51;100470.34;;;13.02;81.22
34237;BME280;20501;45.956;13.632;2023-05-14T02:55:16;100468.59;;;13.45;81.00
34237;BME280;20501;45.956;13.632;2023-05-14T02:57:42;100468.72;;;13.70;79.88
34237;BME280;20501;45.956;13.632;2023-05-14T03:00:09;100471.09;;;13.12;81.62
34237;BME280;20501;45.956;13.632;2023-05-14T03:02:34;100469.44;;;13.46;79.92
34237;BME280;20501;45.956;13.632;2023-05-14T03:05:00;100470.69;;;13.34;80.39
34237;BME280;20501;45.956;13.632;2023-05-14T03:07:26;100475.50;;;13.40;81.22
34237;BME280;20501;45.956;13.632;2023-05-14T03:09:51;100472.00;;;13.90;79.35
34237;BME280;20501;45.956;13.632;2023-05-14T03:12:17;100467.06;;;13.94;78.67
34237;BME280;20501;45.956;13.632;2023-05-14T03:14:42;100455.59;;;14.17;77.83
34237;BME280;20501;45.956;13.632;2023-05-14T03:17:08;100457.09;;;14.03;78.59
34237;BME280;20501;45.956;13.632;2023-05-14T03:19:34;100457.81;;;13.62;80.59
34237;BME280;20501;45.956;13.632;2023-05-14T03:21:59;100456.75;;;13.98;79.55
34237;BME280;20501;45.956;13.632;2023-05-14T03:24:25;100460.50;;;13.54;81.15
34237;BME280;20501;45.956;13.632;2023-05-14T03:26:50;100464.53;;;13.92;79.21
34237;BME280;20501;45.956;13.632;2023-05-14T03:29:16;100459.69;;;14.13;78.42
34237;BME280;20501;45.956;13.632;2023-05-14T03:31:42;100464.81;;;14.24;77.99
34237;BME280;20501;45.956;13.632;2023-05-14T03:34:08;100462.31;;;13.88;81.32
34237;BME280;20501;45.956;13.632;2023-05-14T03:36:33;100462.56;;;13.60;82.63
34237;BME280;20501;45.956;13.632;2023-05-14T03:39:01;100464.50;;;12.70;87.49
34237;BME280;20501;45.956;13.632;2023-05-14T03:41:26;100452.25;;;13.37;82.94
34237;BME280;20501;45.956;13.632;2023-05-14T03:43:51;100457.59;;;13.90;80.24
34237;BME280;20501;45.956;13.632;2023-05-14T03:46:17;100453.06;;;13.64;82.45
34237;BME280;20501;45.956;13.632;2023-05-14T03:48:42;100450.72;;;13.69;81.59
34237;BME280;20501;45.956;13.632;2023-05-14T03:51:08;100447.31;;;13.32;84.54
34237;BME280;20501;45.956;13.632;2023-05-14T03:53:33;100438.97;;;13.60;82.67
34237;BME280;20501;45.956;13.632;2023-05-14T03:55:58;100433.00;;;13.22;84.86
34237;BME280;20501;45.956;13.632;2023-05-14T03:58:24;100436.28;;;13.69;81.76
34237;BME280;20501;45.956;13.632;2023-05-14T04:00:50;100431.13;;;14.00;80.22
34237;BME280;20501;45.956;13.632;2023-05-14T04:03:15;100430.66;;;13.62;82.59
34237;BME280;20501;45.956;13.632;2023-05-14T04:05:41;100423.97;;;13.40;83.76
34237;BME280;20501;45.956;13.632;2023-05-14T04:08:06;100419.41;;;14.00;80.38
34237;BME280;20501;45.956;13.632;2023-05-14T04:10:31;100418.50;;;13.74;81.78
34237;BME280;20501;45.956;13.632;2023-05-14T04:12:57;100419.19;;;13.85;81.40
34237;BME280;20501;45.956;13.632;2023-05-14T04:15:23;100423.59;;;13.08;86.24
34237;BME280;20501;45.956;13.632;2023-05-14T04:17:48;100418.38;;;13.15;85.34
34237;BME280;20501;45.956;13.632;2023-05-14T04:20:13;100417.63;;;13.05;85.78
34237;BME280;20501;45.956;13.632;2023-05-14T04:22:39;100418.28;;;12.98;86.64
34237;BME280;20501;45.956;13.632;2023-05-14T04:25:05;100419.97;;;12.47;89.40
34237;BME280;20501;45.956;13.632;2023-05-14T04:27:32;100406.53;;;12.45;89.91
34237;BME280;20501;45.956;13.632;2023-05-14T04:29:57;100401.84;;;12.11;92.16
34237;BME280;20501;45.956;13.632;2023-05-14T04:32:23;100394.16;;;12.43;90.84
34237;BME280;20501;45.956;13.632;2023-05-14T04:34:48;100387.09;;;12.50;89.88
34237;BME280;20501;45.956;13.632;2023-05-14T04:37:14;100376.75;;;12.27;91.00
34237;BME280;20501;45.956;13.632;2023-05-14T04:39:40;100372.72;;;11.95;93.32
34237;BME280;20501;45.956;13.632;2023-05-14T04:42:05;100364.28;;;13.05;86.72
34237;BME280;20501;45.956;13.632;2023-05-14T04:44:33;100372.75;;;13.10;86.36
34237;BME280;20501;45.956;13.632;2023-05-14T04:46:58;100363.59;;;13.11;86.05
34237;BME280;20501;45.956;13.632;2023-05-14T04:49:24;100364.81;;;13.52;83.49
34237;BME280;20501;45.956;13.632;2023-05-14T04:51:49;100364.88;;;13.68;82.72
34237;BME280;20501;45.956;13.632;2023-05-14T04:54:14;100357.88;;;13.14;83.90
34237;BME280;20501;45.956;13.632;2023-05-14T04:56:40;100354.34;;;13.22;84.23
34237;BME280;20501;45.956;13.632;2023-05-14T04:59:05;100355.91;;;13.76;82.46
34237;BME280;20501;45.956;13.632;2023-05-14T05:01:31;100356.59;;;13.35;83.46
34237;BME280;20501;45.956;13.632;2023-05-14T05:03:57;100362.44;;;12.35;86.50
34237;BME280;20501;45.956;13.632;2023-05-14T05:06:22;100368.56;;;12.37;85.86
34237;BME280;20501;45.956;13.632;2023-05-14T05:08:48;100357.72;;;12.37;85.49
34237;BME280;20501;45.956;13.632;2023-05-14T05:11:13;100360.53;;;12.53;84.78
34237;BME280;20501;45.956;13.632;2023-05-14T05:13:38;100359.53;;;12.54;84.24
34237;BME280;20501;45.956;13.632;2023-05-14T05:16:04;100354.00;;;12.38;85.59
34237;BME280;20501;45.956;13.632;2023-05-14T05:18:30;100349.66;;;12.45;85.61
34237;BME280;20501;45.956;13.632;2023-05-14T05:20:55;100355.41;;;12.68;84.78
34237;BME280;20501;45.956;13.632;2023-05-14T05:23:21;100358.34;;;13.10;84.30
34237;BME280;20501;45.956;13.632;2023-05-14T05:25:46;100354.25;;;13.40;83.17
34237;BME280;20501;45.956;13.632;2023-05-14T05:28:11;100347.16;;;12.78;85.35
34237;BME280;20501;45.956;13.632;2023-05-14T05:30:37;100351.19;;;12.74;84.89
34237;BME280;20501;45.956;13.632;2023-05-14T05:33:02;100353.03;;;13.00;84.83
34237;BME280;20501;45.956;13.632;2023-05-14T05:35:28;100341.44;;;13.59;82.78
34237;BME280;20501;45.956;13.632;2023-05-14T05:37:53;100340.44;;;13.25;83.28
34237;BME280;20501;45.956;13.632;2023-05-14T05:40:19;100348.22;;;12.59;85.03
34237;BME280;20501;45.956;13.632;2023-05-14T05:42:44;100343.34;;;13.32;83.76
34237;BME280;20501;45.956;13.632;2023-05-14T05:45:10;100333.19;;;13.34;83.12
34237;BME280;20501;45.956;13.632;2023-05-14T05:47:35;100326.69;;;13.19;84.61
34237;BME280;20501;45.956;13.632;2023-05-14T05:50:01;100332.75;;;13.55;82.73
34237;BME280;20501;45.956;13.632;2023-05-14T05:52:26;100315.25;;;12.98;86.09
34237;BME280;20501;45.956;13.632;2023-05-14T05:54:52;100306.63;;;12.42;87.60
34237;BME280;20501;45.956;13.632;2023-05-14T05:57:17;100294.19;;;12.92;86.42
34237;BME280;20501;45.956;13.632;2023-05-14T05:59:42;100298.59;;;12.59;86.56
34237;BME280;20501;45.956;13.632;2023-05-14T06:02:08;100297.38;;;12.53;86.79
34237;BME280;20501;45.956;13.632;2023-05-14T06:04:33;100294.44;;;12.73;83.06
34237;BME280;20501;45.956;13.632;2023-05-14T06:06:59;100290.81;;;12.64;82.98
34237;BME280;20501;45.956;13.632;2023-05-14T06:09:24;100275.72;;;12.53;83.73
34237;BME280;20501;45.956;13.632;2023-05-14T06:11:49;100279.06;;;12.47;84.78
34237;BME280;20501;45.956;13.632;2023-05-14T06:14:15;100266.16;;;12.75;84.36
34237;BME280;20501;45.956;13.632;2023-05-14T06:16:40;100272.13;;;12.79;83.13
34237;BME280;20501;45.956;13.632;2023-05-14T06:19:06;100260.75;;;12.75;81.63
34237;BME280;20501;45.956;13.632;2023-05-14T06:21:32;100270.22;;;12.71;82.14
34237;BME280;20501;45.956;13.632;2023-05-14T06:23:58;100260.47;;;12.52;86.27
34237;BME280;20501;45.956;13.632;2023-05-14T06:26:23;100265.66;;;13.14;82.96
34237;BME280;20501;45.956;13.632;2023-05-14T06:28:49;100256.94;;;13.45;81.94
34237;BME280;20501;45.956;13.632;2023-05-14T06:31:14;100256.53;;;13.32;82.75
34237;BME280;20501;45.956;13.632;2023-05-14T06:33:40;100253.63;;;13.25;83.57
34237;BME280;20501;45.956;13.632;2023-05-14T06:36:06;100252.84;;;13.41;82.29
34237;BME280;20501;45.956;13.632;2023-05-14T06:38:32;100250.38;;;13.98;79.72
34237;BME280;20501;45.956;13.632;2023-05-14T06:40:57;100253.31;;;13.37;84.11
34237;BME280;20501;45.956;13.632;2023-05-14T06:43:23;100255.34;;;13.35;82.44
34237;BME280;20501;45.956;13.632;2023-05-14T06:45:49;100257.31;;;13.08;86.92
34237;BME280;20501;45.956;13.632;2023-05-14T06:48:15;100264.59;;;13.07;86.96
34237;BME280;20501;45.956;13.632;2023-05-14T06:50:43;100255.84;;;13.30;85.43
34237;BME280;20501;45.956;13.632;2023-05-14T06:53:08;100247.09;;;13.44;82.40
34237;BME280;20501;45.956;13.632;2023-05-14T06:55:34;100239.47;;;13.89;80.94
34237;BME280;20501;45.956;13.632;2023-05-14T06:58:00;100236.44;;;13.51;82.93
34237;BME280;20501;45.956;13.632;2023-05-14T07:00:25;100225.34;;;13.28;82.17
34237;BME280;20501;45.956;13.632;2023-05-14T07:02:51;100217.34;;;13.18;83.47
34237;BME280;20501;45.956;13.632;2023-05-14T07:05:16;100212.50;;;13.46;74.00
34237;BME280;20501;45.956;13.632;2023-05-14T07:07:41;100217.44;;;13.51;78.95
34237;BME280;20501;45.956;13.632;2023-05-14T07:10:07;100221.34;;;13.49;73.78
34237;BME280;20501;45.956;13.632;2023-05-14T07:12:32;100218.13;;;13.53;74.53
34237;BME280;20501;45.956;13.632;2023-05-14T07:14:58;100216.94;;;13.64;71.72
34237;BME280;20501;45.956;13.632;2023-05-14T07:17:23;100213.69;;;13.77;73.42
34237;BME280;20501;45.956;13.632;2023-05-14T07:19:49;100215.25;;;13.71;71.47
34237;BME280;20501;45.956;13.632;2023-05-14T07:22:15;100214.22;;;13.89;76.00
34237;BME280;20501;45.956;13.632;2023-05-14T07:24:40;100207.41;;;13.85;73.53
34237;BME280;20501;45.956;13.632;2023-05-14T07:27:06;100198.28;;;13.69;75.55
34237;BME280;20501;45.956;13.632;2023-05-14T07:29:32;100192.69;;;13.87;76.43
34237;BME280;20501;45.956;13.632;2023-05-14T07:31:59;100192.84;;;13.77;73.10
34237;BME280;20501;45.956;13.632;2023-05-14T07:34:25;100185.88;;;13.83;72.41
34237;BME280;20501;45.956;13.632;2023-05-14T07:36:50;100183.47;;;13.88;76.60
34237;BME280;20501;45.956;13.632;2023-05-14T07:39:16;100178.56;;;13.84;76.99
34237;BME280;20501;45.956;13.632;2023-05-14T07:41:41;100164.66;;;13.87;73.17
34237;BME280;20501;45.956;13.632;2023-05-14T07:44:07;100152.44;;;13.91;73.62
34237;BME280;20501;45.956;13.632;2023-05-14T07:46:32;100155.31;;;13.98;70.62
34237;BME280;20501;45.956;13.632;2023-05-14T07:48:58;100145.63;;;14.03;69.92
34237;BME280;20501;45.956;13.632;2023-05-14T07:51:23;100144.28;;;13.99;69.80
34237;BME280;20501;45.956;13.632;2023-05-14T07:53:52;100150.19;;;14.11;73.47
34237;BME280;20501;45.956;13.632;2023-05-14T07:56:18;100162.09;;;14.02;69.63
34237;BME280;20501;45.956;13.632;2023-05-14T07:58:44;100157.00;;;14.07;69.44
34237;BME280;20501;45.956;13.632;2023-05-14T08:01:09;100161.06;;;14.03;70.35
34237;BME280;20501;45.956;13.632;2023-05-14T08:03:34;100163.09;;;14.09;72.42
34237;BME280;20501;45.956;13.632;2023-05-14T08:06:00;100147.13;;;14.14;73.77
34237;BME280;20501;45.956;13.632;2023-05-14T08:08:25;100146.78;;;14.17;74.26
34237;BME280;20501;45.956;13.632;2023-05-14T08:10:51;100148.66;;;14.08;72.98
34237;BME280;20501;45.956;13.632;2023-05-14T08:13:17;100153.38;;;14.15;72.85
34237;BME280;20501;45.956;13.632;2023-05-14T08:15:42;100146.94;;;14.16;70.84
34237;BME280;20501;45.956;13.632;2023-05-14T08:18:08;100136.97;;;14.08;71.17
34237;BME280;20501;45.956;13.632;2023-05-14T08:20:33;100134.03;;;14.18;71.53
34237;BME280;20501;45.956;13.632;2023-05-14T08:22:58;100128.22;;;14.29;69.80
34237;BME280;20501;45.956;13.632;2023-05-14T08:25:24;100119.38;;;14.27;69.53
34237;BME280;20501;45.956;13.632;2023-05-14T08:27:49;100113.47;;;14.23;67.68
34237;BME280;20501;45.956;13.632;2023-05-14T08:30:15;100110.91;;;14.30;68.55
34237;BME280;20501;45.956;13.632;2023-05-14T08:32:40;100097.31;;;14.30;66.47
34237;BME280;20501;45.956;13.632;2023-05-14T08:35:06;100100.84;;;14.39;69.66
34237;BME280;20501;45.956;13.632;2023-05-14T08:37:32;100100.66;;;14.40;69.72
34237;BME280;20501;45.956;13.632;2023-05-14T08:39:58;100094.16;;;14.50;65.76
34237;BME280;20501;45.956;13.632;2023-05-14T08:42:23;100093.63;;;14.54;67.88
34237;BME280;20501;45.956;13.632;2023-05-14T08:45:00;100092.25;;;14.59;68.41
34237;BME280;20501;45.956;13.632;2023-05-14T08:47:28;100098.34;;;14.69;66.48
34237;BME280;20501;45.956;13.632;2023-05-14T08:50:02;100091.03;;;14.69;64.96
34237;BME280;20501;45.956;13.632;2023-05-14T08:52:29;100097.13;;;14.72;66.80
34237;BME280;20501;45.956;13.632;2023-05-14T08:54:55;100091.03;;;14.69;62.96
34237;BME280;20501;45.956;13.632;2023-05-14T08:57:22;100099.72;;;14.57;67.07
34237;BME280;20501;45.956;13.632;2023-05-14T08:59:50;100108.75;;;14.57;65.93
34237;BME280;20501;45.956;13.632;2023-05-14T09:02:16;100113.13;;;14.58;64.38
34237;BME280;20501;45.956;13.632;2023-05-14T09:04:44;100129.00;;;14.46;67.39
34237;BME280;20501;45.956;13.632;2023-05-14T09:07:11;100125.13;;;14.40;64.70
34237;BME280;20501;45.956;13.632;2023-05-14T09:09:37;100136.00;;;14.40;67.50
34237;BME280;20501;45.956;13.632;2023-05-14T09:12:02;100143.84;;;14.35;67.55
34237;BME280;20501;45.956;13.632;2023-05-14T09:14:28;100152.00;;;14.35;69.13
34237;BME280;20501;45.956;13.632;2023-05-14T09:16:53;100155.06;;;14.32;69.92
34237;BME280;20501;45.956;13.632;2023-05-14T09:19:19;100153.19;;;14.24;71.55
34237;BME280;20501;45.956;13.632;2023-05-14T09:21:46;100162.91;;;14.19;74.52
34237;BME280;20501;45.956;13.632;2023-05-14T09:24:22;100165.31;;;14.14;79.35
34237;BME280;20501;45.956;13.632;2023-05-14T09:26:57;100164.78;;;14.02;77.96
34237;BME280;20501;45.956;13.632;2023-05-14T09:29:27;100169.91;;;13.97;82.02
34237;BME280;20501;45.956;13.632;2023-05-14T09:31:54;100163.13;;;13.92;83.43
34237;BME280;20501;45.956;13.632;2023-05-14T09:34:30;100153.81;;;13.78;83.10
34237;BME280;20501;45.956;13.632;2023-05-14T09:36:58;100155.50;;;13.80;82.40
34237;BME280;20501;45.956;13.632;2023-05-14T09:39:24;100161.09;;;13.86;79.38
34237;BME280;20501;45.956;13.632;2023-05-14T09:41:50;100154.66;;;13.87;82.24
34237;BME280;20501;45.956;13.632;2023-05-14T09:44:17;100157.16;;;13.97;81.81
34237;BME280;20501;45.956;13.632;2023-05-14T09:46:43;100151.84;;;14.20;77.74
34237;BME280;20501;45.956;13.632;2023-05-14T09:49:09;100143.72;;;14.12;79.00
34237;BME280;20501;45.956;13.632;2023-05-14T09:51:35;100144.94;;;14.09;77.51
34237;BME280;20501;45.956;13.632;2023-05-14T09:54:03;100137.13;;;14.06;76.74
34237;BME280;20501;45.956;13.632;2023-05-14T09:56:29;100129.69;;;14.00;78.57
34237;BME280;20501;45.956;13.632;2023-05-14T09:58:55;100136.44;;;14.04;75.10
34237;BME280;20501;45.956;13.632;2023-05-14T10:01:21;100135.53;;;14.20;75.03
34237;BME280;20501;45.956;13.632;2023-05-14T10:03:47;100141.69;;;14.14;76.79
34237;BME280;20501;45.956;13.632;2023-05-14T10:06:15;100155.09;;;14.16;76.18
34237;BME280;20501;45.956;13.632;2023-05-14T10:08:43;100146.81;;;14.09;75.74
34237;BME280;20501;45.956;13.632;2023-05-14T10:11:14;100130.00;;;14.05;74.92
34237;BME280;20501;45.956;13.632;2023-05-14T10:13:57;100132.78;;;13.81;76.09
34237;BME280;20501;45.956;13.632;2023-05-14T10:16:27;100135.28;;;13.90;76.02
34237;BME280;20501;45.956;13.632;2023-05-14T10:19:05;100136.66;;;13.86;78.39
34237;BME280;20501;45.956;13.632;2023-05-14T10:21:34;100122.44;;;13.76;78.50
34237;BME280;20501;45.956;13.632;2023-05-14T10:24:00;100111.72;;;13.74;78.54
34237;BME280;20501;45.956;13.632;2023-05-14T10:26:26;100104.75;;;13.80;76.87
34237;BME280;20501;45.956;13.632;2023-05-14T10:28:52;100102.03;;;13.88;81.97
34237;BME280;20501;45.956;13.632;2023-05-14T10:31:22;100101.31;;;14.03;79.07
34237;BME280;20501;45.956;13.632;2023-05-14T10:33:49;100098.97;;;13.91;75.60
34237;BME280;20501;45.956;13.632;2023-05-14T10:36:19;100099.28;;;14.05;75.97
34237;BME280;20501;45.956;13.632;2023-05-14T10:38:45;100096.22;;;14.08;75.58
34237;BME280;20501;45.956;13.632;2023-05-14T10:41:12;100095.69;;;14.13;76.39
34237;BME280;20501;45.956;13.632;2023-05-14T10:43:41;100088.97;;;13.92;78.63
34237;BME280;20501;45.956;13.632;2023-05-14T10:46:07;100093.03;;;13.88;76.24
34237;BME280;20501;45.956;13.632;2023-05-14T10:48:33;100095.91;;;13.95;73.93
34237;BME280;20501;45.956;13.632;2023-05-14T10:51:00;100086.75;;;13.96;74.63
34237;BME280;20501;45.956;13.632;2023-05-14T10:53:35;100089.78;;;14.09;77.10
34237;BME280;20501;45.956;13.632;2023-05-14T10:56:06;100076.53;;;14.06;77.22
34237;BME280;20501;45.956;13.632;2023-05-14T10:58:35;100082.03;;;13.81;79.17
34237;BME280;20501;45.956;13.632;2023-05-14T11:01:01;100076.63;;;13.73;79.38
34237;BME280;20501;45.956;13.632;2023-05-14T11:03:29;100077.28;;;13.83;77.51
34237;BME280;20501;45.956;13.632;2023-05-14T11:05:56;100073.84;;;13.98;78.36
34237;BME280;20501;45.956;13.632;2023-05-14T11:08:21;100080.28;;;14.05;77.95
34237;BME280;20501;45.956;13.632;2023-05-14T11:10:48;100084.56;;;13.91;79.04
34237;BME280;20501;45.956;13.632;2023-05-14T11:13:14;100081.13;;;13.97;78.81
34237;BME280;20501;45.956;13.632;2023-05-14T11:15:41;100081.50;;;14.34;77.30
34237;BME280;20501;45.956;13.632;2023-05-14T11:18:11;100073.47;;;14.01;79.55
34237;BME280;20501;45.956;13.632;2023-05-14T11:20:37;100078.47;;;14.29;77.40
34237;BME280;20501;45.956;13.632;2023-05-14T11:23:02;100073.59;;;14.24;77.91
34237;BME280;20501;45.956;13.632;2023-05-14T11:25:28;100074.13;;;14.11;80.41
34237;BME280;20501;45.956;13.632;2023-05-14T11:27:53;100067.19;;;14.08;79.00
34237;BME280;20501;45.956;13.632;2023-05-14T11:30:22;100069.75;;;14.02;80.91
34237;BME280;20501;45.956;13.632;2023-05-14T11:32:49;100070.84;;;13.84;82.52
34237;BME280;20501;45.956;13.632;2023-05-14T11:35:16;100073.88;;;13.81;83.14
34237;BME280;20501;45.956;13.632;2023-05-14T11:37:42;100077.81;;;13.78;82.79
34237;BME280;20501;45.956;13.632;2023-05-14T11:40:13;100096.16;;;13.68;84.92
34237;BME280;20501;45.956;13.632;2023-05-14T11:42:39;100096.81;;;13.70;86.38
34237;BME280;20501;45.956;13.632;2023-05-14T11:45:05;100095.50;;;13.50;87.51
34237;BME280;20501;45.956;13.632;2023-05-14T11:47:31;100094.81;;;13.56;87.35
34237;BME280;20501;45.956;13.632;2023-05-14T11:49:58;100103.25;;;13.61;88.15
34237;BME280;20501;45.956;13.632;2023-05-14T11:52:24;100102.25;;;13.54;89.22
34237;BME280;20501;45.956;13.632;2023-05-14T11:54:50;100105.31;;;13.51;87.92
34237;BME280;20501;45.956;13.632;2023-05-14T11:57:18;100116.88;;;13.44;87.55
34237;BME280;20501;45.956;13.632;2023-05-14T11:59:44;100122.09;;;13.38;88.75
34237;BME280;20501;45.956;13.632;2023-05-14T12:02:14;100120.38;;;13.37;89.98
34237;BME280;20501;45.956;13.632;2023-05-14T12:04:45;100129.38;;;13.37;88.06
34237;BME280;20501;45.956;13.632;2023-05-14T12:07:14;100121.25;;;13.54;88.27
34237;BME280;20501;45.956;13.632;2023-05-14T12:09:42;100127.69;;;13.77;84.51
34237;BME280;20501;45.956;13.632;2023-05-14T12:12:13;100132.09;;;13.78;84.14
34237;BME280;20501;45.956;13.632;2023-05-14T12:14:40;100130.34;;;14.02;82.89
34237;BME280;20501;45.956;13.632;2023-05-14T12:17:14;100127.91;;;14.16;82.32
34237;BME280;20501;45.956;13.632;2023-05-14T12:19:41;100132.69;;;14.05;84.57
34237;BME280;20501;45.956;13.632;2023-05-14T12:22:08;100134.91;;;14.18;81.44
34237;BME280;20501;45.956;13.632;2023-05-14T12:24:34;100142.06;;;13.95;83.51
34237;BME280;20501;45.956;13.632;2023-05-14T12:27:01;100147.03;;;13.66;89.13
34237;BME280;20501;45.956;13.632;2023-05-14T12:29:26;100141.28;;;13.44;90.89
34237;BME280;20501;45.956;13.632;2023-05-14T12:31:51;100141.09;;;13.46;86.41
34237;BME280;20501;45.956;13.632;2023-05-14T12:34:17;100132.47;;;13.42;89.96
34237;BME280;20501;45.956;13.632;2023-05-14T12:36:43;100139.72;;;13.25;93.22
34237;BME280;20501;45.956;13.632;2023-05-14T12:39:09;100126.31;;;13.32;88.93
34237;BME280;20501;45.956;13.632;2023-05-14T12:41:36;100133.47;;;13.66;88.98